createdAt,value
2023-01-11T00:01:02.661Z,0.70
2023-01-11T00:03:30.260Z,0.63
2023-01-11T00:05:58.277Z,0.70
2023-01-11T00:08:26.275Z,1.13
2023-01-11T00:10:54.173Z,0.63
2023-01-11T00:13:22.082Z,0.60
2023-01-11T00:15:49.558Z,0.70
2023-01-11T00:18:18.385Z,0.60
2023-01-11T00:20:45.902Z,0.60
2023-01-11T00:23:13.550Z,0.70
2023-01-11T00:25:41.180Z,1.00
2023-01-11T00:28:08.594Z,0.70
2023-01-11T00:30:36.565Z,0.60
2023-01-11T00:33:04.046Z,0.50
2023-01-11T00:35:33.245Z,0.63
2023-01-11T00:38:00.643Z,0.67
2023-01-11T00:40:28.215Z,0.50
2023-01-11T00:43:13.723Z,0.50
2023-01-11T00:46:13.540Z,0.60
2023-01-11T00:48:41.103Z,0.60
2023-01-11T00:51:09.882Z,0.50
2023-01-11T00:53:37.311Z,0.50
2023-01-11T00:56:04.840Z,0.60
2023-01-11T00:58:32.271Z,0.60
2023-01-11T01:00:59.805Z,0.60
2023-01-11T01:03:27.269Z,0.60
2023-01-11T01:05:55.388Z,0.60
2023-01-11T01:08:24.154Z,0.60
2023-01-11T01:10:52.485Z,0.60
2023-01-11T01:13:37.598Z,0.50
2023-01-11T01:16:05.273Z,0.70
2023-01-11T01:18:32.831Z,0.60
2023-01-11T01:21:00.353Z,0.50
2023-01-11T01:23:29.145Z,0.60
2023-01-11T01:25:56.699Z,0.67
2023-01-11T01:28:25.164Z,0.50
2023-01-11T01:30:53.129Z,0.60
2023-01-11T01:33:20.609Z,0.60
2023-01-11T01:35:48.050Z,0.50
2023-01-11T01:38:15.516Z,0.60
2023-01-11T01:40:45.239Z,0.60
2023-01-11T01:43:12.777Z,0.60
2023-01-11T01:45:41.236Z,0.50
2023-01-11T01:48:10.336Z,0.53
2023-01-11T01:50:38.620Z,0.70
2023-01-11T01:53:09.305Z,0.50
2023-01-11T01:55:38.579Z,0.50
2023-01-11T01:58:10.348Z,0.50
2023-01-11T02:00:39.401Z,0.50
2023-01-11T02:03:07.184Z,0.50
2023-01-11T02:05:34.675Z,0.60
2023-01-11T02:08:03.936Z,0.70
2023-01-11T02:10:33.532Z,0.50
2023-01-11T02:13:02.024Z,0.50
2023-01-11T02:15:30.850Z,0.60
2023-01-11T02:17:58.456Z,0.70
2023-01-11T02:20:43.678Z,0.60
2023-01-11T02:23:26.073Z,0.60
2023-01-11T02:26:20.911Z,0.60
2023-01-11T02:28:52.951Z,0.50
2023-01-11T02:31:26.509Z,0.50
2023-01-11T02:34:01.390Z,0.50
2023-01-11T02:36:32.545Z,0.50
2023-01-11T02:39:04.077Z,0.50
2023-01-11T02:41:55.005Z,0.50
2023-01-11T02:44:45.193Z,0.57
2023-01-11T02:47:18.501Z,0.50
2023-01-11T02:49:49.040Z,0.50
2023-01-11T02:52:19.209Z,0.50
2023-01-11T02:54:54.102Z,0.60
2023-01-11T02:57:22.306Z,0.60
2023-01-11T02:59:51.755Z,0.60
2023-01-11T03:02:19.309Z,0.63
2023-01-11T03:04:46.736Z,0.50
2023-01-11T03:07:21.228Z,0.50
2023-01-11T03:09:56.349Z,0.60
2023-01-11T03:12:54.814Z,0.60
2023-01-11T03:15:43.363Z,0.43
2023-01-11T03:18:20.002Z,0.50
2023-01-11T03:20:50.500Z,0.40
2023-01-11T03:23:22.575Z,0.50
2023-01-11T03:25:56.889Z,0.50
2023-01-11T03:28:29.872Z,0.50
2023-01-11T03:31:00.792Z,0.57
2023-01-11T03:33:33.880Z,0.50
2023-01-11T03:36:03.967Z,0.50
2023-01-11T03:38:35.519Z,0.60
2023-01-11T03:41:05.394Z,0.50
2023-01-11T03:43:34.327Z,0.53
2023-01-11T03:46:05.250Z,0.50
2023-01-11T03:48:35.775Z,0.57
2023-01-11T03:51:04.199Z,0.50
2023-01-11T03:53:33.727Z,0.57
2023-01-11T03:56:02.105Z,0.50
2023-01-11T03:58:30.485Z,0.50
2023-01-11T04:00:58.512Z,0.50
2023-01-11T04:03:28.117Z,0.50
2023-01-11T04:05:58.905Z,0.50
2023-01-11T04:08:26.483Z,0.50
2023-01-11T04:10:53.973Z,0.40
2023-01-11T04:13:21.447Z,0.50
2023-01-11T04:15:48.877Z,0.50
2023-01-11T04:18:16.296Z,0.60
2023-01-11T04:20:43.702Z,0.50
2023-01-11T04:23:12.455Z,0.60
2023-01-11T04:25:39.953Z,0.60
2023-01-11T04:28:07.402Z,0.50
2023-01-11T04:30:36.036Z,0.70
2023-01-11T04:33:03.970Z,0.60
2023-01-11T04:35:31.450Z,0.47
2023-01-11T04:37:59.208Z,0.70
2023-01-11T04:40:28.077Z,0.60
2023-01-11T04:42:54.561Z,0.50
2023-01-11T04:45:22.025Z,0.50
2023-01-11T04:47:54.505Z,0.60
2023-01-11T04:50:21.999Z,0.70
2023-01-11T04:52:49.533Z,0.70
2023-01-11T04:55:17.154Z,0.70
2023-01-11T04:57:46.102Z,0.60
2023-01-11T05:00:13.981Z,0.60
2023-01-11T05:02:41.676Z,0.50
2023-01-11T05:05:11.117Z,0.60
2023-01-11T05:07:38.805Z,0.60
2023-01-11T05:10:07.235Z,0.77
2023-01-11T05:12:34.784Z,0.70
2023-01-11T05:15:03.550Z,0.60
2023-01-11T05:17:31.084Z,0.70
2023-01-11T05:19:58.541Z,0.67
2023-01-11T05:22:25.984Z,0.60
2023-01-11T05:24:53.433Z,0.60
2023-01-11T05:27:20.913Z,0.63
2023-01-11T05:29:48.334Z,0.70
2023-01-11T05:32:17.220Z,0.70
2023-01-11T05:34:44.630Z,0.80
2023-01-11T05:37:12.080Z,0.70
2023-01-11T05:39:41.894Z,0.90
2023-01-11T05:42:09.403Z,0.60
2023-01-11T05:44:56.803Z,0.60
2023-01-11T05:47:26.817Z,0.70
2023-01-11T05:49:54.293Z,0.60
2023-01-11T05:52:21.914Z,0.60
2023-01-11T05:54:49.397Z,0.67
2023-01-11T05:57:16.930Z,0.53
2023-01-11T05:59:44.375Z,0.60
2023-01-11T06:02:12.096Z,0.80
2023-01-11T06:04:40.917Z,0.70
2023-01-11T06:07:09.935Z,0.80
2023-01-11T06:09:37.328Z,0.80
2023-01-11T06:12:04.949Z,0.70
2023-01-11T06:14:32.426Z,0.70
2023-01-11T06:17:02.237Z,0.70
2023-01-11T06:19:29.739Z,0.90
2023-01-11T06:21:58.627Z,0.80
2023-01-11T06:24:26.021Z,0.73
2023-01-11T06:26:53.484Z,0.70
2023-01-11T06:29:20.955Z,1.00
2023-01-11T06:31:48.337Z,0.90
2023-01-11T06:34:15.794Z,0.80
2023-01-11T06:36:43.244Z,1.00
2023-01-11T06:39:12.032Z,0.77
2023-01-11T06:41:39.431Z,0.90
2023-01-11T06:44:07.099Z,0.77
2023-01-11T06:46:34.582Z,0.90
2023-01-11T06:49:02.722Z,1.70
2023-01-11T06:51:30.191Z,1.30
2023-01-11T06:53:57.693Z,0.90
2023-01-11T06:56:26.444Z,1.33
2023-01-11T06:58:53.951Z,0.80
2023-01-11T07:01:22.081Z,0.80
2023-01-11T07:03:49.551Z,1.00
2023-01-11T07:06:17.358Z,1.13
2023-01-11T07:08:44.872Z,0.90
2023-01-11T07:11:12.529Z,0.90
2023-01-11T07:13:41.603Z,0.80
2023-01-11T07:16:09.105Z,0.70
2023-01-11T07:18:37.276Z,0.90
2023-01-11T07:21:04.812Z,0.90
2023-01-11T07:23:32.175Z,0.90
2023-01-11T07:25:59.609Z,1.00
2023-01-11T07:28:28.481Z,1.50
2023-01-11T07:30:59.781Z,1.47
2023-01-11T07:33:28.123Z,2.00
2023-01-11T07:35:56.175Z,3.00
2023-01-11T07:38:23.848Z,2.77
2023-01-11T07:40:51.462Z,2.80
2023-01-11T07:43:19.650Z,2.50
2023-01-11T07:45:49.279Z,1.40
2023-01-11T07:48:21.318Z,1.20
2023-01-11T07:50:49.514Z,1.20
2023-01-11T07:53:18.922Z,1.00
2023-01-11T07:55:47.190Z,1.20
2023-01-11T07:58:15.439Z,1.00
2023-01-11T08:00:43.104Z,1.00
2023-01-11T08:03:11.111Z,1.20
2023-01-11T08:05:40.621Z,1.10
2023-01-11T08:08:08.615Z,1.03
2023-01-11T08:10:36.380Z,0.90
2023-01-11T08:13:33.032Z,0.90
2023-01-11T08:16:00.738Z,0.93
2023-01-11T08:18:28.236Z,0.90
2023-01-11T08:20:57.040Z,0.70
2023-01-11T08:23:25.450Z,0.90
2023-01-11T08:25:56.979Z,0.97
2023-01-11T08:28:24.402Z,1.00
2023-01-11T08:30:51.945Z,1.03
2023-01-11T08:33:19.494Z,1.20
2023-01-11T08:35:46.962Z,1.20
2023-01-11T08:38:15.751Z,1.13
2023-01-11T08:40:43.182Z,1.20
2023-01-11T08:43:10.575Z,2.87
2023-01-11T08:45:37.996Z,4.23
2023-01-11T08:48:05.587Z,2.40
2023-01-11T08:50:32.949Z,1.73
2023-01-11T08:53:00.371Z,1.30
2023-01-11T08:55:30.728Z,1.00
2023-01-11T08:57:58.428Z,1.20
2023-01-11T09:00:25.820Z,1.10
2023-01-11T09:02:53.343Z,1.10
2023-01-11T09:05:20.969Z,1.50
2023-01-11T09:07:48.433Z,1.27
2023-01-11T09:10:16.164Z,1.27
2023-01-11T09:12:44.914Z,0.97
2023-01-11T09:15:12.535Z,1.10
2023-01-11T09:17:40.027Z,0.90
2023-01-11T09:20:07.987Z,1.10
2023-01-11T09:22:35.381Z,1.03
2023-01-11T09:25:02.963Z,1.00
2023-01-11T09:27:30.410Z,1.00
2023-01-11T09:29:59.166Z,1.20
2023-01-11T09:32:26.615Z,1.10
2023-01-11T09:34:57.900Z,1.00
2023-01-11T09:37:25.543Z,1.10
2023-01-11T09:39:53.000Z,0.97
2023-01-11T09:42:31.633Z,1.23
2023-01-11T09:45:02.936Z,1.00
2023-01-11T09:47:32.817Z,1.20
2023-01-11T09:50:02.351Z,1.73
2023-01-11T09:52:33.164Z,1.70
2023-01-11T09:55:01.349Z,1.83
2023-01-11T09:57:38.563Z,2.07
2023-01-11T10:00:12.098Z,2.47
2023-01-11T10:02:45.715Z,2.50
2023-01-11T10:05:23.602Z,2.70
2023-01-11T10:18:38.616Z,3.90
2023-01-11T10:19:41.330Z,3.43
2023-01-11T10:22:12.145Z,3.67
2023-01-11T10:24:42.515Z,3.80
2023-01-11T10:27:15.717Z,4.13
2023-01-11T10:29:58.383Z,4.20
2023-01-11T10:32:45.647Z,4.30
2023-01-11T10:35:29.261Z,4.40
2023-01-11T10:38:11.027Z,4.20
2023-01-11T10:41:01.352Z,4.50
2023-01-11T10:43:29.783Z,4.23
2023-01-11T10:45:58.974Z,4.03
2023-01-11T10:48:31.897Z,4.40
2023-01-11T10:51:02.878Z,4.60
2023-01-11T10:53:33.135Z,4.40
2023-01-11T10:56:04.954Z,4.43
2023-01-11T10:58:40.173Z,4.40
2023-01-11T11:01:17.236Z,4.17
2023-01-11T11:03:54.064Z,4.60
2023-01-11T11:06:24.912Z,4.40
2023-01-11T11:08:54.548Z,4.10
2023-01-11T11:11:23.955Z,4.27
2023-01-11T11:13:56.326Z,3.90
2023-01-11T11:16:37.202Z,4.00
2023-01-11T11:19:06.057Z,3.70
2023-01-11T11:21:36.433Z,4.20
2023-01-11T11:24:06.604Z,4.10
2023-01-11T11:26:37.316Z,3.40
2023-01-11T11:29:06.422Z,3.60
2023-01-11T11:31:36.055Z,3.90
2023-01-11T11:34:09.139Z,4.03
2023-01-11T11:36:43.546Z,3.83
2023-01-11T11:39:12.479Z,3.80
2023-01-11T11:41:47.173Z,4.17
2023-01-11T11:44:17.303Z,3.50
2023-01-11T11:46:56.756Z,3.87
2023-01-11T11:49:25.476Z,3.13
2023-01-11T11:51:53.397Z,3.20
2023-01-11T11:54:22.856Z,3.83
2023-01-11T11:56:50.586Z,3.17
2023-01-11T11:59:19.478Z,3.63
2023-01-11T12:01:47.840Z,6.80
2023-01-11T12:04:16.708Z,3.10
2023-01-11T12:06:46.525Z,3.77
2023-01-11T12:09:24.155Z,3.10
2023-01-11T12:11:51.599Z,2.20
2023-01-11T12:14:19.963Z,3.00
2023-01-11T12:16:48.073Z,3.10
2023-01-11T12:19:28.485Z,2.60
2023-01-11T12:22:10.074Z,3.10
2023-01-11T12:24:37.860Z,2.73
2023-01-11T12:27:09.811Z,3.10
2023-01-11T12:29:49.752Z,2.77
2023-01-11T12:32:25.838Z,3.17
2023-01-11T12:35:03.457Z,2.47
2023-01-11T12:37:37.435Z,2.90
2023-01-11T12:40:11.051Z,2.70
2023-01-11T12:42:44.157Z,2.83
2023-01-11T12:45:16.794Z,2.90
2023-01-11T12:47:55.101Z,2.50
2023-01-11T12:50:24.967Z,2.80
2023-01-11T12:53:03.570Z,2.50
2023-01-11T12:55:41.490Z,3.60
2023-01-11T12:58:15.085Z,2.77
2023-01-11T13:01:01.594Z,2.50
2023-01-11T13:03:53.129Z,3.17
2023-01-11T13:06:23.675Z,2.80
2023-01-11T13:08:58.648Z,2.80
2023-01-11T13:11:36.324Z,2.70
2023-01-11T13:14:22.495Z,2.70
2023-01-11T13:16:53.095Z,2.30
2023-01-11T13:19:23.914Z,2.60
2023-01-11T13:21:53.846Z,2.70
2023-01-11T13:24:26.392Z,2.57
2023-01-11T13:26:55.836Z,2.37
2023-01-11T13:29:26.925Z,3.00
2023-01-11T13:31:54.856Z,2.50
2023-01-11T13:34:26.093Z,2.73
2023-01-11T13:36:56.867Z,4.27
2023-01-11T13:39:29.719Z,2.90
2023-01-11T13:41:59.236Z,3.03
2023-01-11T13:44:28.460Z,2.60
2023-01-11T13:47:07.002Z,2.87
2023-01-11T13:49:58.393Z,2.40
2023-01-11T13:52:30.197Z,2.50
2023-01-11T13:55:01.855Z,2.90
2023-01-11T13:57:34.712Z,2.80
2023-01-11T14:00:04.682Z,2.70
2023-01-11T14:02:38.306Z,2.50
2023-01-11T14:05:09.801Z,2.80
2023-01-11T14:07:41.451Z,2.50
2023-01-11T14:10:15.808Z,2.47
2023-01-11T14:12:52.293Z,2.43
2023-01-11T14:15:27.348Z,2.20
2023-01-11T14:18:05.635Z,2.73
2023-01-11T14:20:36.741Z,2.47
2023-01-11T14:23:07.493Z,2.57
2023-01-11T14:25:39.124Z,2.00
2023-01-11T14:28:30.363Z,2.20
2023-01-11T14:31:02.696Z,2.57
2023-01-11T14:33:54.271Z,2.30
2023-01-11T14:36:39.440Z,2.30
2023-01-11T14:39:31.080Z,2.47
2023-01-11T14:42:31.274Z,2.60
2023-01-11T14:45:07.119Z,2.40
2023-01-11T14:47:45.014Z,2.43
2023-01-11T14:50:18.106Z,2.47
2023-01-11T14:52:46.449Z,2.57
2023-01-11T14:55:19.882Z,2.17
2023-01-11T14:58:01.594Z,2.17
2023-01-11T15:00:53.120Z,2.43
2023-01-11T15:03:34.212Z,2.13
2023-01-11T15:06:02.354Z,2.30
2023-01-11T15:08:35.608Z,3.53
2023-01-11T15:11:05.284Z,2.10
2023-01-11T15:13:35.585Z,2.70
2023-01-11T15:16:25.887Z,2.70
2023-01-11T15:18:55.242Z,2.60
2023-01-11T15:21:24.021Z,2.43
2023-01-11T15:23:54.251Z,2.27
2023-01-11T15:26:23.010Z,2.20
2023-01-11T15:28:51.487Z,2.60
2023-01-11T15:31:36.394Z,2.73
2023-01-11T15:34:17.620Z,2.67
2023-01-11T15:36:55.235Z,2.57
2023-01-11T15:39:28.557Z,2.97
2023-01-11T15:42:07.378Z,2.73
2023-01-11T15:44:46.739Z,2.67
2023-01-11T15:47:32.125Z,2.27
2023-01-11T15:50:18.177Z,2.47
2023-01-11T15:53:00.891Z,3.00
2023-01-11T15:55:48.130Z,2.97
2023-01-11T15:58:33.438Z,2.40
2023-01-11T16:01:08.863Z,3.90
2023-01-11T16:04:01.081Z,2.17
2023-01-11T16:06:34.150Z,3.30
2023-01-11T16:09:08.177Z,2.40
2023-01-11T16:11:39.227Z,2.70
2023-01-11T16:14:30.784Z,2.47
2023-01-11T16:16:58.748Z,2.37
2023-01-11T16:19:28.272Z,2.57
2023-01-11T16:21:59.411Z,2.87
2023-01-11T16:24:29.588Z,2.60
2023-01-11T16:26:58.493Z,3.20
2023-01-11T16:29:27.552Z,5.17
2023-01-11T16:31:57.062Z,6.67
2023-01-11T16:34:25.054Z,7.50
2023-01-11T16:36:52.620Z,7.30
2023-01-11T16:39:23.409Z,8.03
2023-01-11T16:41:53.354Z,6.33
2023-01-11T16:44:24.244Z,6.30
2023-01-11T16:47:15.605Z,7.00
2023-01-11T16:49:48.657Z,5.80
2023-01-11T16:52:38.826Z,4.57
2023-01-11T16:55:19.540Z,3.70
2023-01-11T16:57:49.004Z,3.27
2023-01-11T17:00:24.426Z,2.63
2023-01-11T17:03:00.909Z,3.10
2023-01-11T17:05:28.349Z,3.33
2023-01-11T17:07:55.794Z,3.20
2023-01-11T17:10:26.615Z,3.20
2023-01-11T17:13:02.421Z,3.50
2023-01-11T17:15:32.390Z,2.70
2023-01-11T17:18:02.670Z,2.50
2023-01-11T17:20:31.188Z,3.10
2023-01-11T17:22:59.174Z,2.50
2023-01-11T17:25:37.573Z,3.37
2023-01-11T17:28:15.437Z,3.30
2023-01-11T17:30:44.735Z,2.90
2023-01-11T17:33:24.411Z,2.80
2023-01-11T17:35:52.012Z,3.20
2023-01-11T17:38:22.520Z,2.70
2023-01-11T17:40:51.903Z,4.07
2023-01-11T17:43:39.117Z,3.27
2023-01-11T17:46:07.170Z,2.97
2023-01-11T17:48:34.931Z,2.27
2023-01-11T17:51:03.149Z,3.07
2023-01-11T17:53:32.356Z,2.63
2023-01-11T17:56:02.332Z,2.30
2023-01-11T17:58:30.111Z,2.50
2023-01-11T18:01:09.728Z,3.37
2023-01-11T18:03:40.677Z,2.50
2023-01-11T18:06:11.533Z,2.10
2023-01-11T18:08:38.997Z,3.43
2023-01-11T18:11:07.880Z,2.50
2023-01-11T18:13:35.601Z,2.40
2023-01-11T18:16:03.715Z,1.73
2023-01-11T18:18:42.403Z,2.07
2023-01-11T18:21:28.391Z,2.20
2023-01-11T18:24:10.739Z,1.90
2023-01-11T18:26:39.992Z,1.63
2023-01-11T18:29:07.531Z,2.50
2023-01-11T18:31:34.925Z,2.10
2023-01-11T18:34:06.765Z,2.77
2023-01-11T18:36:34.223Z,2.17
2023-01-11T18:39:01.940Z,2.37
2023-01-11T18:41:46.767Z,2.03
2023-01-11T18:44:15.594Z,2.00
2023-01-11T18:46:43.032Z,1.80
2023-01-11T18:49:10.511Z,1.70
2023-01-11T18:51:39.676Z,2.00
2023-01-11T18:54:08.011Z,1.83
2023-01-11T18:56:35.413Z,1.70
2023-01-11T18:59:02.825Z,1.90
2023-01-11T19:01:35.307Z,1.83
2023-01-11T19:04:07.914Z,1.70
2023-01-11T19:06:35.416Z,1.87
2023-01-11T19:09:02.842Z,2.37
2023-01-11T19:11:30.897Z,2.30
2023-01-11T19:13:58.358Z,1.90
2023-01-11T19:16:25.874Z,2.10
2023-01-11T19:18:56.368Z,2.20
2023-01-11T19:21:23.774Z,1.77
2023-01-11T19:23:51.241Z,2.03
2023-01-11T19:26:18.779Z,2.30
2023-01-11T19:28:46.435Z,3.10
2023-01-11T19:31:14.366Z,2.70
2023-01-11T19:33:41.778Z,1.80
2023-01-11T19:36:11.213Z,1.97
2023-01-11T19:38:39.673Z,1.80
2023-01-11T19:41:08.206Z,2.27
2023-01-11T19:43:36.879Z,2.00
2023-01-11T19:46:04.883Z,2.13
2023-01-11T19:48:33.031Z,2.20
2023-01-11T19:51:04.284Z,1.80
2023-01-11T19:53:33.319Z,2.13
2023-01-11T19:56:01.340Z,2.03
2023-01-11T19:58:28.838Z,2.00
2023-01-11T20:00:56.268Z,2.13
2023-01-11T20:03:24.075Z,1.60
2023-01-11T20:05:51.513Z,2.10
2023-01-11T20:08:18.971Z,2.20
2023-01-11T20:10:47.887Z,2.30
2023-01-11T20:13:15.325Z,2.10
2023-01-11T20:15:42.791Z,2.27
2023-01-11T20:18:10.609Z,2.70
2023-01-11T20:20:38.062Z,2.07
2023-01-11T20:23:05.477Z,2.13
2023-01-11T20:25:33.076Z,2.37
2023-01-11T20:28:02.006Z,2.30
2023-01-11T20:30:29.437Z,2.10
2023-01-11T20:32:56.951Z,2.20
2023-01-11T20:35:24.450Z,2.00
2023-01-11T20:37:53.690Z,2.07
2023-01-11T20:40:21.405Z,3.30
2023-01-11T20:42:48.842Z,2.27
2023-01-11T20:45:17.794Z,2.10
2023-01-11T20:47:45.207Z,2.20
2023-01-11T20:50:12.714Z,2.37
2023-01-11T20:52:40.234Z,2.37
2023-01-11T20:55:08.095Z,2.63
2023-01-11T20:57:35.615Z,1.80
2023-01-11T21:00:03.057Z,2.00
2023-01-11T21:02:31.930Z,2.20
2023-01-11T21:04:59.879Z,2.27
2023-01-11T21:07:27.302Z,3.00
2023-01-11T21:09:54.762Z,2.00
2023-01-11T21:12:22.214Z,1.80
2023-01-11T21:14:49.655Z,2.00
2023-01-11T21:17:19.134Z,1.70
2023-01-11T21:19:48.025Z,1.80
2023-01-11T21:22:15.456Z,1.80
2023-01-11T21:24:44.253Z,1.90
2023-01-11T21:27:11.890Z,1.67
2023-01-11T21:29:39.517Z,1.60
2023-01-11T21:32:07.263Z,2.27
2023-01-11T21:34:34.747Z,1.80
2023-01-11T21:37:03.536Z,1.67
2023-01-11T21:39:31.003Z,2.00
2023-01-11T21:41:59.607Z,2.10
2023-01-11T21:44:29.251Z,2.43
2023-01-11T21:46:56.759Z,1.60
2023-01-11T21:49:24.697Z,1.97
2023-01-11T21:51:52.385Z,1.60
2023-01-11T21:54:21.491Z,1.77
2023-01-11T21:56:49.630Z,1.90
2023-01-11T21:59:17.373Z,2.27
2023-01-11T22:01:45.605Z,2.33
2023-01-11T22:04:13.842Z,1.70
2023-01-11T22:06:42.139Z,2.13
2023-01-11T22:09:10.418Z,1.93
2023-01-11T22:11:39.200Z,1.70
2023-01-11T22:14:08.561Z,2.77
2023-01-11T22:16:36.906Z,2.10
2023-01-11T22:19:06.103Z,1.47
2023-01-11T22:21:33.776Z,1.90
2023-01-11T22:24:01.242Z,2.03
2023-01-11T22:26:30.135Z,2.30
2023-01-11T22:29:14.961Z,2.17
2023-01-11T22:31:44.073Z,1.80
2023-01-11T22:34:11.923Z,2.03
2023-01-11T22:36:39.539Z,1.80
2023-01-11T22:39:07.329Z,1.97
2023-01-11T22:41:34.751Z,1.60
2023-01-11T22:44:03.577Z,1.70
2023-01-11T22:46:31.051Z,1.83
2023-01-11T22:48:58.696Z,1.90
2023-01-11T22:51:26.967Z,1.73
2023-01-11T22:53:55.327Z,1.70
2023-01-11T22:56:25.524Z,1.90
2023-01-11T22:58:53.480Z,1.83
2023-01-11T23:01:23.196Z,1.80
2023-01-11T23:03:51.314Z,1.47
2023-01-11T23:06:19.919Z,1.77
2023-01-11T23:08:47.385Z,1.87
2023-01-11T23:11:35.935Z,1.70
2023-01-11T23:14:04.244Z,1.67
2023-01-11T23:16:33.148Z,1.80
2023-01-11T23:19:00.940Z,1.80
2023-01-11T23:21:28.566Z,1.30
2023-01-11T23:23:56.059Z,1.40
2023-01-11T23:26:23.732Z,1.60
2023-01-11T23:28:51.449Z,1.70
2023-01-11T23:31:20.521Z,1.80
2023-01-11T23:33:50.025Z,1.50
2023-01-11T23:36:18.543Z,1.40
2023-01-11T23:38:46.193Z,1.67
2023-01-11T23:41:32.545Z,1.60
2023-01-11T23:44:00.035Z,1.60
2023-01-11T23:46:45.089Z,1.50
2023-01-11T23:49:14.510Z,1.90
2023-01-11T23:51:42.422Z,1.57
2023-01-11T23:54:09.967Z,1.50
2023-01-11T23:56:37.862Z,1.70
2023-01-11T23:59:06.229Z,1.63
